HCC weather

Columbia County Airport
Hudson, New York, United States

Public forecast

Using degrees Fahrenheit for public forecast. Weather courtesy of forecast.io.

Closest aviation weather report (METAR) to Columbia County Airport

Closest report is Pittsfield Municipal Airport, 20.2 nm (37.5 km) ENE. Retrieved 2019/12/08 23:54 UTC (8 minutes ago):

KPSF 082354Z AUTO 19012G21KT 160V220 10SM CLR M01/M07 A3028 RMK AO2 SLP281 T10111067 10000 21022 58012

Closest aviation forecast (TAF) to Columbia County Airport

Closest forecast is Pittsfield Municipal Airport, 20.2 nm (37.5 km) ENE. Retrieved 2019-12-09 00:39 UTC (0 seconds ago):

TAF KPSF 082336Z 0900/0924 18010KT P6SM OVC120 FM090600 21012KT P6SM OVC040 FM091300 16006KT P6SM VCSH OVC015 FM091500 18008KT 5SM -SHRA BR OVC008 WS020/21040KT FM092000 18008KT 2SM -SHRA BR OVC008 WS020/21040KT